sensor_id;sensor_type;location;lat;lon;timestamp;P1;durP1;ratioP1;P2;durP2;ratioP2
47856;SDS011;33618;49.972;8.242;2022-10-26T00:01:03;4.55;;;3.67;;
47856;SDS011;33618;49.972;8.242;2022-10-26T00:03:36;6.68;;;3.72;;
47856;SDS011;33618;49.972;8.242;2022-10-26T00:06:05;8.25;;;3.60;;
47856;SDS011;33618;49.972;8.242;2022-10-26T00:08:35;4.53;;;3.78;;
47856;SDS011;33618;49.972;8.242;2022-10-26T00:11:03;8.73;;;4.20;;
47856;SDS011;33618;49.972;8.242;2022-10-26T00:13:31;8.38;;;3.83;;
47856;SDS011;33618;49.972;8.242;2022-10-26T00:16:00;8.88;;;3.75;;
47856;SDS011;33618;49.972;8.242;2022-10-26T00:18:27;8.07;;;3.85;;
47856;SDS011;33618;49.972;8.242;2022-10-26T00:20:55;5.22;;;3.85;;
47856;SDS011;33618;49.972;8.242;2022-10-26T00:53:31;6.47;;;3.95;;
47856;SDS011;33618;49.972;8.242;2022-10-26T00:55:58;7.90;;;3.90;;
47856;SDS011;33618;49.972;8.242;2022-10-26T00:58:26;8.55;;;4.05;;
47856;SDS011;33618;49.972;8.242;2022-10-26T01:00:53;7.70;;;3.97;;
47856;SDS011;33618;49.972;8.242;2022-10-26T01:03:21;8.50;;;3.90;;
47856;SDS011;33618;49.972;8.242;2022-10-26T01:05:50;6.20;;;4.03;;
47856;SDS011;33618;49.972;8.242;2022-10-26T01:08:22;10.73;;;4.00;;
47856;SDS011;33618;49.972;8.242;2022-10-26T01:10:49;9.60;;;4.00;;
47856;SDS011;33618;49.972;8.242;2022-10-26T01:13:16;7.90;;;3.85;;
47856;SDS011;33618;49.972;8.242;2022-10-26T01:18:46;6.90;;;3.92;;
47856;SDS011;33618;49.972;8.242;2022-10-26T01:21:40;10.05;;;4.18;;
47856;SDS011;33618;49.972;8.242;2022-10-26T01:32:02;11.95;;;4.57;;
47856;SDS011;33618;49.972;8.242;2022-10-26T01:34:34;8.52;;;4.50;;
47856;SDS011;33618;49.972;8.242;2022-10-26T01:37:20;14.25;;;4.43;;
47856;SDS011;33618;49.972;8.242;2022-10-26T01:39:52;8.20;;;3.90;;
47856;SDS011;33618;49.972;8.242;2022-10-26T01:42:25;13.32;;;4.05;;
47856;SDS011;33618;49.972;8.242;2022-10-26T01:44:58;11.20;;;3.92;;
47856;SDS011;33618;49.972;8.242;2022-10-26T01:47:30;14.20;;;4.45;;
47856;SDS011;33618;49.972;8.242;2022-10-26T01:49:59;10.45;;;4.35;;
47856;SDS011;33618;49.972;8.242;2022-10-26T01:52:27;6.40;;;3.75;;
47856;SDS011;33618;49.972;8.242;2022-10-26T01:55:05;11.50;;;3.88;;
47856;SDS011;33618;49.972;8.242;2022-10-26T01:57:52;9.55;;;3.92;;
47856;SDS011;33618;49.972;8.242;2022-10-26T02:00:24;8.73;;;3.80;;
47856;SDS011;33618;49.972;8.242;2022-10-26T02:05:40;6.50;;;3.67;;
47856;SDS011;33618;49.972;8.242;2022-10-26T02:13:40;14.95;;;4.10;;
47856;SDS011;33618;49.972;8.242;2022-10-26T02:16:29;11.80;;;4.50;;
47856;SDS011;33618;49.972;8.242;2022-10-26T02:21:59;10.05;;;4.28;;
47856;SDS011;33618;49.972;8.242;2022-10-26T02:24:40;5.25;;;3.90;;
47856;SDS011;33618;49.972;8.242;2022-10-26T02:27:10;7.30;;;4.40;;
47856;SDS011;33618;49.972;8.242;2022-10-26T02:29:41;8.52;;;4.20;;
47856;SDS011;33618;49.972;8.242;2022-10-26T02:32:09;10.25;;;4.50;;
47856;SDS011;33618;49.972;8.242;2022-10-26T02:34:37;10.90;;;4.35;;
47856;SDS011;33618;49.972;8.242;2022-10-26T02:37:06;10.05;;;4.50;;
47856;SDS011;33618;49.972;8.242;2022-10-26T02:39:34;4.55;;;3.95;;
47856;SDS011;33618;49.972;8.242;2022-10-26T02:42:04;4.88;;;4.30;;
47856;SDS011;33618;49.972;8.242;2022-10-26T02:44:41;6.38;;;4.40;;
47856;SDS011;33618;49.972;8.242;2022-10-26T02:47:14;7.25;;;4.40;;
47856;SDS011;33618;49.972;8.242;2022-10-26T02:49:43;7.22;;;4.25;;
47856;SDS011;33618;49.972;8.242;2022-10-26T02:52:12;10.98;;;4.93;;
47856;SDS011;33618;49.972;8.242;2022-10-26T02:54:50;6.82;;;4.68;;
47856;SDS011;33618;49.972;8.242;2022-10-26T02:57:19;11.38;;;4.55;;
47856;SDS011;33618;49.972;8.242;2022-10-26T02:59:51;6.80;;;4.50;;
47856;SDS011;33618;49.972;8.242;2022-10-26T03:02:19;10.77;;;4.32;;
47856;SDS011;33618;49.972;8.242;2022-10-26T03:04:48;7.28;;;4.63;;
47856;SDS011;33618;49.972;8.242;2022-10-26T03:07:20;13.32;;;4.70;;
47856;SDS011;33618;49.972;8.242;2022-10-26T03:09:48;6.80;;;4.40;;
47856;SDS011;33618;49.972;8.242;2022-10-26T03:12:14;7.07;;;4.47;;
47856;SDS011;33618;49.972;8.242;2022-10-26T03:14:43;7.53;;;3.97;;
47856;SDS011;33618;49.972;8.242;2022-10-26T03:17:10;10.07;;;4.57;;
47856;SDS011;33618;49.972;8.242;2022-10-26T03:19:37;7.07;;;4.53;;
47856;SDS011;33618;49.972;8.242;2022-10-26T03:22:04;9.02;;;4.68;;
47856;SDS011;33618;49.972;8.242;2022-10-26T03:24:31;10.52;;;4.82;;
47856;SDS011;33618;49.972;8.242;2022-10-26T03:26:57;6.30;;;4.68;;
47856;SDS011;33618;49.972;8.242;2022-10-26T03:29:27;8.95;;;4.40;;
47856;SDS011;33618;49.972;8.242;2022-10-26T03:31:54;7.20;;;4.85;;
47856;SDS011;33618;49.972;8.242;2022-10-26T03:34:21;7.65;;;4.88;;
47856;SDS011;33618;49.972;8.242;2022-10-26T03:36:48;8.07;;;4.35;;
47856;SDS011;33618;49.972;8.242;2022-10-26T03:39:15;7.07;;;4.45;;
47856;SDS011;33618;49.972;8.242;2022-10-26T03:41:41;7.85;;;5.22;;
47856;SDS011;33618;49.972;8.242;2022-10-26T03:44:09;7.97;;;4.63;;
47856;SDS011;33618;49.972;8.242;2022-10-26T03:46:36;7.30;;;4.68;;
47856;SDS011;33618;49.972;8.242;2022-10-26T03:49:03;8.45;;;5.18;;
47856;SDS011;33618;49.972;8.242;2022-10-26T03:51:30;8.30;;;5.00;;
47856;SDS011;33618;49.972;8.242;2022-10-26T03:53:57;10.77;;;4.85;;
47856;SDS011;33618;49.972;8.242;2022-10-26T03:56:24;9.20;;;4.97;;
47856;SDS011;33618;49.972;8.242;2022-10-26T03:58:52;8.68;;;4.63;;
47856;SDS011;33618;49.972;8.242;2022-10-26T04:01:19;6.57;;;4.80;;
47856;SDS011;33618;49.972;8.242;2022-10-26T04:03:46;11.90;;;4.72;;
47856;SDS011;33618;49.972;8.242;2022-10-26T04:06:13;9.45;;;4.78;;
47856;SDS011;33618;49.972;8.242;2022-10-26T04:08:40;9.77;;;4.80;;
47856;SDS011;33618;49.972;8.242;2022-10-26T04:11:07;7.38;;;4.78;;
47856;SDS011;33618;49.972;8.242;2022-10-26T04:13:34;10.98;;;4.80;;
47856;SDS011;33618;49.972;8.242;2022-10-26T04:16:01;10.10;;;4.43;;
47856;SDS011;33618;49.972;8.242;2022-10-26T04:18:27;10.85;;;4.43;;
47856;SDS011;33618;49.972;8.242;2022-10-26T04:20:55;8.15;;;4.53;;
47856;SDS011;33618;49.972;8.242;2022-10-26T04:23:22;14.05;;;4.93;;
47856;SDS011;33618;49.972;8.242;2022-10-26T04:25:54;7.50;;;4.28;;
47856;SDS011;33618;49.972;8.242;2022-10-26T04:28:20;13.85;;;5.78;;
47856;SDS011;33618;49.972;8.242;2022-10-26T04:30:47;11.68;;;4.95;;
47856;SDS011;33618;49.972;8.242;2022-10-26T04:33:14;12.25;;;4.60;;
47856;SDS011;33618;49.972;8.242;2022-10-26T04:35:41;9.95;;;4.80;;
47856;SDS011;33618;49.972;8.242;2022-10-26T04:38:08;13.20;;;4.20;;
47856;SDS011;33618;49.972;8.242;2022-10-26T04:40:36;10.52;;;4.45;;
47856;SDS011;33618;49.972;8.242;2022-10-26T04:43:02;15.15;;;4.57;;
47856;SDS011;33618;49.972;8.242;2022-10-26T04:45:29;9.93;;;4.43;;
47856;SDS011;33618;49.972;8.242;2022-10-26T04:48:00;13.38;;;4.40;;
47856;SDS011;33618;49.972;8.242;2022-10-26T04:50:32;12.68;;;4.70;;
47856;SDS011;33618;49.972;8.242;2022-10-26T04:52:59;9.43;;;4.25;;
47856;SDS011;33618;49.972;8.242;2022-10-26T04:55:26;15.10;;;5.20;;
47856;SDS011;33618;49.972;8.242;2022-10-26T04:57:53;15.13;;;5.20;;
47856;SDS011;33618;49.972;8.242;2022-10-26T05:00:25;10.15;;;4.90;;
47856;SDS011;33618;49.972;8.242;2022-10-26T05:02:57;9.18;;;4.47;;
47856;SDS011;33618;49.972;8.242;2022-10-26T05:05:25;9.13;;;4.30;;
47856;SDS011;33618;49.972;8.242;2022-10-26T05:07:53;8.43;;;5.15;;
47856;SDS011;33618;49.972;8.242;2022-10-26T05:10:21;9.85;;;4.85;;
47856;SDS011;33618;49.972;8.242;2022-10-26T05:12:49;8.85;;;4.43;;
47856;SDS011;33618;49.972;8.242;2022-10-26T05:15:17;10.15;;;4.65;;
47856;SDS011;33618;49.972;8.242;2022-10-26T05:17:44;8.10;;;4.15;;
47856;SDS011;33618;49.972;8.242;2022-10-26T05:20:12;8.32;;;4.53;;
47856;SDS011;33618;49.972;8.242;2022-10-26T05:22:39;11.32;;;4.93;;
47856;SDS011;33618;49.972;8.242;2022-10-26T05:25:06;16.30;;;4.50;;
47856;SDS011;33618;49.972;8.242;2022-10-26T05:27:34;9.88;;;4.38;;
47856;SDS011;33618;49.972;8.242;2022-10-26T05:30:01;10.57;;;5.40;;
47856;SDS011;33618;49.972;8.242;2022-10-26T05:32:28;12.95;;;5.10;;
47856;SDS011;33618;49.972;8.242;2022-10-26T05:34:55;8.00;;;4.47;;
47856;SDS011;33618;49.972;8.242;2022-10-26T05:37:21;7.60;;;4.50;;
47856;SDS011;33618;49.972;8.242;2022-10-26T05:39:48;9.77;;;4.72;;
47856;SDS011;33618;49.972;8.242;2022-10-26T05:42:15;8.20;;;4.30;;
47856;SDS011;33618;49.972;8.242;2022-10-26T05:44:42;9.73;;;4.55;;
47856;SDS011;33618;49.972;8.242;2022-10-26T05:47:09;10.80;;;4.78;;
47856;SDS011;33618;49.972;8.242;2022-10-26T05:49:36;8.95;;;4.38;;
47856;SDS011;33618;49.972;8.242;2022-10-26T05:52:04;10.57;;;4.82;;
47856;SDS011;33618;49.972;8.242;2022-10-26T05:54:31;10.55;;;5.07;;
47856;SDS011;33618;49.972;8.242;2022-10-26T05:56:58;11.38;;;4.97;;
47856;SDS011;33618;49.972;8.242;2022-10-26T05:59:25;17.60;;;4.97;;
47856;SDS011;33618;49.972;8.242;2022-10-26T06:05:02;9.68;;;4.80;;
47856;SDS011;33618;49.972;8.242;2022-10-26T06:07:30;9.70;;;4.70;;
47856;SDS011;33618;49.972;8.242;2022-10-26T06:09:59;12.45;;;5.20;;
47856;SDS011;33618;49.972;8.242;2022-10-26T06:12:27;10.48;;;5.38;;
47856;SDS011;33618;49.972;8.242;2022-10-26T06:14:54;10.57;;;4.95;;
47856;SDS011;33618;49.972;8.242;2022-10-26T06:28:51;11.13;;;5.25;;
47856;SDS011;33618;49.972;8.242;2022-10-26T06:31:16;8.93;;;4.90;;
47856;SDS011;33618;49.972;8.242;2022-10-26T06:33:43;8.43;;;4.72;;
47856;SDS011;33618;49.972;8.242;2022-10-26T06:36:14;14.02;;;5.13;;
47856;SDS011;33618;49.972;8.242;2022-10-26T06:38:44;8.75;;;4.68;;
47856;SDS011;33618;49.972;8.242;2022-10-26T06:41:13;8.00;;;4.90;;
47856;SDS011;33618;49.972;8.242;2022-10-26T06:43:41;10.32;;;4.90;;
47856;SDS011;33618;49.972;8.242;2022-10-26T06:51:32;9.93;;;4.82;;
47856;SDS011;33618;49.972;8.242;2022-10-26T06:54:14;10.15;;;4.82;;
47856;SDS011;33618;49.972;8.242;2022-10-26T06:56:59;12.60;;;4.72;;
47856;SDS011;33618;49.972;8.242;2022-10-26T06:59:31;8.73;;;4.90;;
47856;SDS011;33618;49.972;8.242;2022-10-26T07:02:05;8.23;;;4.60;;
47856;SDS011;33618;49.972;8.242;2022-10-26T07:04:33;10.05;;;4.47;;
47856;SDS011;33618;49.972;8.242;2022-10-26T07:07:00;10.82;;;4.70;;
47856;SDS011;33618;49.972;8.242;2022-10-26T07:09:28;11.73;;;4.80;;
47856;SDS011;33618;49.972;8.242;2022-10-26T07:11:54;8.00;;;4.70;;
47856;SDS011;33618;49.972;8.242;2022-10-26T07:14:21;11.27;;;5.05;;
47856;SDS011;33618;49.972;8.242;2022-10-26T07:16:48;8.52;;;4.88;;
47856;SDS011;33618;49.972;8.242;2022-10-26T07:19:15;12.27;;;5.03;;
47856;SDS011;33618;49.972;8.242;2022-10-26T07:21:42;8.68;;;5.03;;
47856;SDS011;33618;49.972;8.242;2022-10-26T07:24:09;11.70;;;5.30;;
47856;SDS011;33618;49.972;8.242;2022-10-26T07:26:36;7.15;;;4.80;;
47856;SDS011;33618;49.972;8.242;2022-10-26T07:29:03;9.75;;;4.90;;
47856;SDS011;33618;49.972;8.242;2022-10-26T07:31:29;11.90;;;5.07;;
47856;SDS011;33618;49.972;8.242;2022-10-26T07:33:56;13.60;;;4.80;;
47856;SDS011;33618;49.972;8.242;2022-10-26T07:36:23;10.48;;;5.20;;
47856;SDS011;33618;49.972;8.242;2022-10-26T07:38:51;7.05;;;4.45;;
47856;SDS011;33618;49.972;8.242;2022-10-26T07:41:25;10.02;;;5.15;;
47856;SDS011;33618;49.972;8.242;2022-10-26T07:43:52;9.95;;;4.85;;
47856;SDS011;33618;49.972;8.242;2022-10-26T07:46:18;7.78;;;4.57;;
47856;SDS011;33618;49.972;8.242;2022-10-26T07:48:45;10.95;;;5.13;;
47856;SDS011;33618;49.972;8.242;2022-10-26T07:51:12;11.07;;;4.68;;
47856;SDS011;33618;49.972;8.242;2022-10-26T07:53:40;8.23;;;5.15;;
47856;SDS011;33618;49.972;8.242;2022-10-26T07:56:07;8.50;;;5.00;;
47856;SDS011;33618;49.972;8.242;2022-10-26T07:58:35;11.70;;;5.18;;
47856;SDS011;33618;49.972;8.242;2022-10-26T08:01:06;9.55;;;4.70;;
47856;SDS011;33618;49.972;8.242;2022-10-26T08:03:34;5.82;;;5.10;;
47856;SDS011;33618;49.972;8.242;2022-10-26T08:06:02;8.02;;;4.80;;
47856;SDS011;33618;49.972;8.242;2022-10-26T08:08:32;6.47;;;4.68;;
47856;SDS011;33618;49.972;8.242;2022-10-26T08:10:59;7.85;;;4.40;;
47856;SDS011;33618;49.972;8.242;2022-10-26T08:13:26;7.78;;;4.70;;
47856;SDS011;33618;49.972;8.242;2022-10-26T08:16:02;7.07;;;4.30;;
47856;SDS011;33618;49.972;8.242;2022-10-26T08:18:30;9.98;;;4.10;;
47856;SDS011;33618;49.972;8.242;2022-10-26T08:21:05;8.77;;;4.50;;
47856;SDS011;33618;49.972;8.242;2022-10-26T08:23:38;11.35;;;4.72;;
47856;SDS011;33618;49.972;8.242;2022-10-26T08:26:05;5.78;;;3.90;;
47856;SDS011;33618;49.972;8.242;2022-10-26T08:28:33;8.07;;;4.03;;
47856;SDS011;33618;49.972;8.242;2022-10-26T08:31:00;4.90;;;3.40;;
47856;SDS011;33618;49.972;8.242;2022-10-26T08:33:26;6.40;;;3.70;;
47856;SDS011;33618;49.972;8.242;2022-10-26T08:35:57;5.45;;;3.55;;
47856;SDS011;33618;49.972;8.242;2022-10-26T08:38:25;9.20;;;3.78;;
47856;SDS011;33618;49.972;8.242;2022-10-26T08:40:53;10.50;;;3.35;;
47856;SDS011;33618;49.972;8.242;2022-10-26T08:43:24;6.38;;;3.80;;
47856;SDS011;33618;49.972;8.242;2022-10-26T08:46:19;8.52;;;3.90;;
47856;SDS011;33618;49.972;8.242;2022-10-26T08:48:58;8.45;;;3.38;;
47856;SDS011;33618;49.972;8.242;2022-10-26T08:51:32;8.93;;;3.65;;
47856;SDS011;33618;49.972;8.242;2022-10-26T08:54:04;6.88;;;4.18;;
47856;SDS011;33618;49.972;8.242;2022-10-26T08:56:51;7.28;;;3.42;;
47856;SDS011;33618;49.972;8.242;2022-10-26T08:59:29;6.10;;;3.25;;
47856;SDS011;33618;49.972;8.242;2022-10-26T09:02:07;8.35;;;3.63;;
47856;SDS011;33618;49.972;8.242;2022-10-26T09:04:38;5.50;;;3.17;;
47856;SDS011;33618;49.972;8.242;2022-10-26T09:07:07;5.03;;;3.83;;
47856;SDS011;33618;49.972;8.242;2022-10-26T09:10:05;5.95;;;3.80;;
47856;SDS011;33618;49.972;8.242;2022-10-26T09:12:44;9.60;;;3.55;;
47856;SDS011;33618;49.972;8.242;2022-10-26T09:29:19;7.53;;;3.28;;
47856;SDS011;33618;49.972;8.242;2022-10-26T09:31:49;7.40;;;2.90;;
47856;SDS011;33618;49.972;8.242;2022-10-26T09:34:22;6.97;;;3.20;;
47856;SDS011;33618;49.972;8.242;2022-10-26T09:37:12;5.22;;;3.30;;
47856;SDS011;33618;49.972;8.242;2022-10-26T09:42:33;5.47;;;3.00;;
47856;SDS011;33618;49.972;8.242;2022-10-26T09:47:49;4.95;;;3.20;;
47856;SDS011;33618;49.972;8.242;2022-10-26T09:50:26;7.68;;;3.28;;
47856;SDS011;33618;49.972;8.242;2022-10-26T09:53:02;4.85;;;2.88;;
47856;SDS011;33618;49.972;8.242;2022-10-26T09:55:33;6.80;;;3.03;;
47856;SDS011;33618;49.972;8.242;2022-10-26T09:58:11;6.97;;;3.30;;
47856;SDS011;33618;49.972;8.242;2022-10-26T10:00:41;5.43;;;2.80;;
47856;SDS011;33618;49.972;8.242;2022-10-26T10:03:17;7.32;;;2.95;;
47856;SDS011;33618;49.972;8.242;2022-10-26T10:05:46;4.75;;;2.40;;
47856;SDS011;33618;49.972;8.242;2022-10-26T10:10:59;3.85;;;2.55;;
47856;SDS011;33618;49.972;8.242;2022-10-26T10:13:33;4.47;;;2.50;;
47856;SDS011;33618;49.972;8.242;2022-10-26T10:16:04;3.92;;;2.60;;
47856;SDS011;33618;49.972;8.242;2022-10-26T10:18:31;5.75;;;2.50;;
47856;SDS011;33618;49.972;8.242;2022-10-26T10:20:59;7.35;;;2.80;;
47856;SDS011;33618;49.972;8.242;2022-10-26T10:23:46;8.55;;;2.88;;
47856;SDS011;33618;49.972;8.242;2022-10-26T10:26:14;7.40;;;2.92;;
47856;SDS011;33618;49.972;8.242;2022-10-26T10:28:41;2.88;;;2.53;;
47856;SDS011;33618;49.972;8.242;2022-10-26T10:31:21;5.30;;;2.55;;
47856;SDS011;33618;49.972;8.242;2022-10-26T10:33:56;7.17;;;2.60;;
47856;SDS011;33618;49.972;8.242;2022-10-26T10:36:25;5.38;;;2.55;;
47856;SDS011;33618;49.972;8.242;2022-10-26T10:38:57;4.35;;;2.33;;
47856;SDS011;33618;49.972;8.242;2022-10-26T10:41:45;5.15;;;2.45;;
47856;SDS011;33618;49.972;8.242;2022-10-26T10:46:47;4.63;;;2.67;;
47856;SDS011;33618;49.972;8.242;2022-10-26T10:49:19;6.78;;;2.58;;
47856;SDS011;33618;49.972;8.242;2022-10-26T10:51:50;4.93;;;2.58;;
47856;SDS011;33618;49.972;8.242;2022-10-26T10:54:20;3.67;;;2.60;;
47856;SDS011;33618;49.972;8.242;2022-10-26T10:56:50;6.35;;;2.53;;
47856;SDS011;33618;49.972;8.242;2022-10-26T11:10:50;6.70;;;2.63;;
47856;SDS011;33618;49.972;8.242;2022-10-26T11:13:33;7.57;;;2.55;;
47856;SDS011;33618;49.972;8.242;2022-10-26T11:16:25;4.30;;;2.63;;
47856;SDS011;33618;49.972;8.242;2022-10-26T11:19:04;4.63;;;2.70;;
47856;SDS011;33618;49.972;8.242;2022-10-26T11:21:54;4.28;;;2.60;;
47856;SDS011;33618;49.972;8.242;2022-10-26T11:27:16;7.00;;;2.78;;
47856;SDS011;33618;49.972;8.242;2022-10-26T11:32:22;5.63;;;4.40;;
47856;SDS011;33618;49.972;8.242;2022-10-26T11:46:11;5.10;;;2.40;;
47856;SDS011;33618;49.972;8.242;2022-10-26T11:56:54;4.85;;;2.42;;
47856;SDS011;33618;49.972;8.242;2022-10-26T11:59:29;6.55;;;2.33;;
47856;SDS011;33618;49.972;8.242;2022-10-26T12:02:00;4.38;;;2.33;;
47856;SDS011;33618;49.972;8.242;2022-10-26T12:04:39;7.32;;;2.08;;
47856;SDS011;33618;49.972;8.242;2022-10-26T12:07:10;4.85;;;2.28;;
47856;SDS011;33618;49.972;8.242;2022-10-26T12:09:45;4.18;;;2.40;;
47856;SDS011;33618;49.972;8.242;2022-10-26T12:14:58;6.65;;;2.40;;
47856;SDS011;33618;49.972;8.242;2022-10-26T12:23:31;6.25;;;2.47;;
47856;SDS011;33618;49.972;8.242;2022-10-26T12:34:06;5.63;;;2.22;;
47856;SDS011;33618;49.972;8.242;2022-10-26T12:39:27;7.93;;;2.47;;
47856;SDS011;33618;49.972;8.242;2022-10-26T12:41:58;8.13;;;2.50;;
47856;SDS011;33618;49.972;8.242;2022-10-26T12:44:36;9.10;;;2.08;;
47856;SDS011;33618;49.972;8.242;2022-10-26T13:00:54;7.15;;;2.20;;
47856;SDS011;33618;49.972;8.242;2022-10-26T13:07:15;3.67;;;1.58;;
47856;SDS011;33618;49.972;8.242;2022-10-26T13:15:22;4.38;;;1.60;;
47856;SDS011;33618;49.972;8.242;2022-10-26T13:20:36;3.17;;;1.30;;
47856;SDS011;33618;49.972;8.242;2022-10-26T13:23:31;6.30;;;2.08;;
47856;SDS011;33618;49.972;8.242;2022-10-26T13:26:14;4.65;;;1.58;;
47856;SDS011;33618;49.972;8.242;2022-10-26T13:28:52;2.70;;;1.40;;
47856;SDS011;33618;49.972;8.242;2022-10-26T13:39:43;2.60;;;1.38;;
47856;SDS011;33618;49.972;8.242;2022-10-26T13:42:19;3.92;;;1.50;;
47856;SDS011;33618;49.972;8.242;2022-10-26T13:44:53;3.38;;;1.42;;
47856;SDS011;33618;49.972;8.242;2022-10-26T13:47:34;2.13;;;1.40;;
47856;SDS011;33618;49.972;8.242;2022-10-26T13:50:23;3.38;;;1.35;;
47856;SDS011;33618;49.972;8.242;2022-10-26T13:52:58;2.42;;;1.30;;
47856;SDS011;33618;49.972;8.242;2022-10-26T13:55:42;4.70;;;1.33;;
47856;SDS011;33618;49.972;8.242;2022-10-26T14:03:46;2.63;;;1.48;;
47856;SDS011;33618;49.972;8.242;2022-10-26T14:09:04;6.75;;;1.50;;
47856;SDS011;33618;49.972;8.242;2022-10-26T14:11:48;8.60;;;1.58;;
47856;SDS011;33618;49.972;8.242;2022-10-26T14:14:33;2.63;;;1.40;;
47856;SDS011;33618;49.972;8.242;2022-10-26T14:17:01;3.72;;;1.58;;
47856;SDS011;33618;49.972;8.242;2022-10-26T14:19:34;6.45;;;1.67;;
47856;SDS011;33618;49.972;8.242;2022-10-26T14:22:03;2.00;;;1.52;;
47856;SDS011;33618;49.972;8.242;2022-10-26T14:24:31;7.40;;;2.22;;
47856;SDS011;33618;49.972;8.242;2022-10-26T14:27:13;3.88;;;1.60;;
47856;SDS011;33618;49.972;8.242;2022-10-26T14:29:44;4.53;;;1.58;;
47856;SDS011;33618;49.972;8.242;2022-10-26T14:32:31;6.30;;;1.50;;
47856;SDS011;33618;49.972;8.242;2022-10-26T14:35:02;2.28;;;1.65;;
47856;SDS011;33618;49.972;8.242;2022-10-26T14:38:16;3.78;;;1.40;;
47856;SDS011;33618;49.972;8.242;2022-10-26T14:40:20;3.40;;;1.50;;
47856;SDS011;33618;49.972;8.242;2022-10-26T14:42:50;1.75;;;1.27;;
47856;SDS011;33618;49.972;8.242;2022-10-26T14:48:14;5.80;;;1.50;;
47856;SDS011;33618;49.972;8.242;2022-10-26T14:53:34;9.88;;;1.75;;
47856;SDS011;33618;49.972;8.242;2022-10-26T14:56:04;3.40;;;1.42;;
47856;SDS011;33618;49.972;8.242;2022-10-26T14:58:50;2.90;;;1.67;;
47856;SDS011;33618;49.972;8.242;2022-10-26T15:03:52;3.97;;;1.52;;
47856;SDS011;33618;49.972;8.242;2022-10-26T15:08:53;4.78;;;1.40;;
47856;SDS011;33618;49.972;8.242;2022-10-26T15:11:25;4.07;;;1.67;;
47856;SDS011;33618;49.972;8.242;2022-10-26T15:13:53;4.45;;;1.30;;
47856;SDS011;33618;49.972;8.242;2022-10-26T15:16:23;4.68;;;1.77;;
47856;SDS011;33618;49.972;8.242;2022-10-26T15:18:51;2.30;;;1.23;;
47856;SDS011;33618;49.972;8.242;2022-10-26T15:21:44;1.95;;;1.50;;
47856;SDS011;33618;49.972;8.242;2022-10-26T15:24:19;1.33;;;1.20;;
47856;SDS011;33618;49.972;8.242;2022-10-26T15:26:53;3.85;;;1.40;;
47856;SDS011;33618;49.972;8.242;2022-10-26T15:29:33;2.22;;;1.33;;
47856;SDS011;33618;49.972;8.242;2022-10-26T15:37:45;6.63;;;1.10;;
47856;SDS011;33618;49.972;8.242;2022-10-26T15:40:13;6.05;;;1.30;;
47856;SDS011;33618;49.972;8.242;2022-10-26T15:42:41;4.78;;;1.25;;
47856;SDS011;33618;49.972;8.242;2022-10-26T15:45:23;3.50;;;1.13;;
47856;SDS011;33618;49.972;8.242;2022-10-26T15:47:57;6.22;;;1.40;;
47856;SDS011;33618;49.972;8.242;2022-10-26T15:50:26;4.82;;;1.40;;
47856;SDS011;33618;49.972;8.242;2022-10-26T15:53:00;2.22;;;1.30;;
47856;SDS011;33618;49.972;8.242;2022-10-26T15:55:33;2.53;;;1.50;;
47856;SDS011;33618;49.972;8.242;2022-10-26T15:58:01;3.20;;;1.40;;
47856;SDS011;33618;49.972;8.242;2022-10-26T16:00:28;6.30;;;1.60;;
47856;SDS011;33618;49.972;8.242;2022-10-26T16:02:54;1.88;;;1.20;;
47856;SDS011;33618;49.972;8.242;2022-10-26T16:05:21;7.07;;;1.38;;
47856;SDS011;33618;49.972;8.242;2022-10-26T16:07:48;4.57;;;1.42;;
47856;SDS011;33618;49.972;8.242;2022-10-26T16:10:17;6.13;;;1.70;;
47856;SDS011;33618;49.972;8.242;2022-10-26T16:12:47;6.28;;;1.73;;
47856;SDS011;33618;49.972;8.242;2022-10-26T16:15:21;5.47;;;1.90;;
47856;SDS011;33618;49.972;8.242;2022-10-26T16:17:50;4.43;;;1.45;;
47856;SDS011;33618;49.972;8.242;2022-10-26T16:20:19;3.28;;;1.70;;
47856;SDS011;33618;49.972;8.242;2022-10-26T16:22:48;6.68;;;1.70;;
47856;SDS011;33618;49.972;8.242;2022-10-26T16:25:19;9.70;;;1.73;;
47856;SDS011;33618;49.972;8.242;2022-10-26T16:27:48;3.72;;;1.50;;
47856;SDS011;33618;49.972;8.242;2022-10-26T16:30:16;2.35;;;1.67;;
47856;SDS011;33618;49.972;8.242;2022-10-26T16:32:43;2.25;;;1.60;;
47856;SDS011;33618;49.972;8.242;2022-10-26T16:35:10;2.60;;;1.60;;
47856;SDS011;33618;49.972;8.242;2022-10-26T16:37:38;3.22;;;1.80;;
47856;SDS011;33618;49.972;8.242;2022-10-26T16:40:06;4.63;;;2.00;;
47856;SDS011;33618;49.972;8.242;2022-10-26T16:42:33;2.10;;;1.90;;
47856;SDS011;33618;49.972;8.242;2022-10-26T16:45:01;2.15;;;1.95;;
47856;SDS011;33618;49.972;8.242;2022-10-26T16:47:30;7.43;;;1.92;;
47856;SDS011;33618;49.972;8.242;2022-10-26T16:50:01;5.25;;;1.98;;
47856;SDS011;33618;49.972;8.242;2022-10-26T16:52:29;2.92;;;1.90;;
47856;SDS011;33618;49.972;8.242;2022-10-26T16:54:56;8.45;;;1.98;;
47856;SDS011;33618;49.972;8.242;2022-10-26T16:57:23;10.43;;;2.05;;
47856;SDS011;33618;49.972;8.242;2022-10-26T16:59:49;5.00;;;2.08;;
47856;SDS011;33618;49.972;8.242;2022-10-26T17:02:17;6.00;;;2.22;;
47856;SDS011;33618;49.972;8.242;2022-10-26T17:04:45;3.70;;;2.55;;
47856;SDS011;33618;49.972;8.242;2022-10-26T17:07:12;6.85;;;2.20;;
47856;SDS011;33618;49.972;8.242;2022-10-26T17:09:39;4.13;;;2.65;;
47856;SDS011;33618;49.972;8.242;2022-10-26T17:12:06;4.90;;;2.33;;
47856;SDS011;33618;49.972;8.242;2022-10-26T17:14:33;4.45;;;2.08;;
47856;SDS011;33618;49.972;8.242;2022-10-26T17:17:00;6.18;;;2.80;;
47856;SDS011;33618;49.972;8.242;2022-10-26T17:19:27;8.50;;;2.63;;
47856;SDS011;33618;49.972;8.242;2022-10-26T17:21:54;3.70;;;2.60;;
47856;SDS011;33618;49.972;8.242;2022-10-26T17:24:20;4.90;;;3.00;;
47856;SDS011;33618;49.972;8.242;2022-10-26T17:26:47;5.25;;;3.17;;
47856;SDS011;33618;49.972;8.242;2022-10-26T17:29:14;5.30;;;3.42;;
47856;SDS011;33618;49.972;8.242;2022-10-26T17:31:41;6.95;;;3.55;;
47856;SDS011;33618;49.972;8.242;2022-10-26T17:34:08;5.38;;;3.13;;
47856;SDS011;33618;49.972;8.242;2022-10-26T17:36:35;5.63;;;2.92;;
47856;SDS011;33618;49.972;8.242;2022-10-26T17:39:02;5.05;;;2.88;;
47856;SDS011;33618;49.972;8.242;2022-10-26T17:41:29;7.85;;;2.88;;
47856;SDS011;33618;49.972;8.242;2022-10-26T17:43:56;5.22;;;2.40;;
47856;SDS011;33618;49.972;8.242;2022-10-26T17:46:24;5.75;;;2.60;;
47856;SDS011;33618;49.972;8.242;2022-10-26T17:48:58;7.07;;;3.28;;
47856;SDS011;33618;49.972;8.242;2022-10-26T17:51:26;5.63;;;2.97;;
47856;SDS011;33618;49.972;8.242;2022-10-26T17:53:54;5.05;;;2.95;;
47856;SDS011;33618;49.972;8.242;2022-10-26T17:56:23;12.15;;;3.30;;
47856;SDS011;33618;49.972;8.242;2022-10-26T17:58:53;6.85;;;3.35;;
47856;SDS011;33618;49.972;8.242;2022-10-26T18:01:21;7.97;;;2.75;;
47856;SDS011;33618;49.972;8.242;2022-10-26T18:03:49;3.22;;;2.45;;
47856;SDS011;33618;49.972;8.242;2022-10-26T18:06:17;5.28;;;2.80;;
47856;SDS011;33618;49.972;8.242;2022-10-26T18:08:44;4.50;;;3.20;;
47856;SDS011;33618;49.972;8.242;2022-10-26T18:11:15;5.78;;;3.05;;
47856;SDS011;33618;49.972;8.242;2022-10-26T18:13:51;3.50;;;2.70;;
47856;SDS011;33618;49.972;8.242;2022-10-26T18:16:22;6.25;;;3.08;;
47856;SDS011;33618;49.972;8.242;2022-10-26T18:18:53;7.57;;;3.10;;
47856;SDS011;33618;49.972;8.242;2022-10-26T18:21:29;4.95;;;3.45;;
47856;SDS011;33618;49.972;8.242;2022-10-26T18:23:57;6.72;;;3.45;;
47856;SDS011;33618;49.972;8.242;2022-10-26T18:26:26;6.88;;;3.30;;
47856;SDS011;33618;49.972;8.242;2022-10-26T18:28:54;7.18;;;3.55;;
47856;SDS011;33618;49.972;8.242;2022-10-26T18:31:23;9.35;;;3.40;;
47856;SDS011;33618;49.972;8.242;2022-10-26T18:33:58;4.50;;;3.20;;
47856;SDS011;33618;49.972;8.242;2022-10-26T18:36:27;7.13;;;2.88;;
47856;SDS011;33618;49.972;8.242;2022-10-26T18:38:54;6.07;;;2.65;;